sensor_id;sensor_type;location;lat;lon;timestamp;temperature;humidity
14099;DHT22;7126;48.458;7.930;2023-04-24T00:01:24;13.20;99.90
14099;DHT22;7126;48.458;7.930;2023-04-24T00:03:49;13.30;99.90
14099;DHT22;7126;48.458;7.930;2023-04-24T00:06:15;13.30;99.90
14099;DHT22;7126;48.458;7.930;2023-04-24T00:08:42;13.20;99.90
14099;DHT22;7126;48.458;7.930;2023-04-24T00:11:08;13.20;99.90
14099;DHT22;7126;48.458;7.930;2023-04-24T00:13:35;13.20;99.90
14099;DHT22;7126;48.458;7.930;2023-04-24T00:16:00;13.20;99.90
14099;DHT22;7126;48.458;7.930;2023-04-24T00:18:26;13.20;99.90
14099;DHT22;7126;48.458;7.930;2023-04-24T00:20:52;13.20;99.90
14099;DHT22;7126;48.458;7.930;2023-04-24T00:23:17;13.20;99.90
14099;DHT22;7126;48.458;7.930;2023-04-24T00:25:43;13.10;99.90
14099;DHT22;7126;48.458;7.930;2023-04-24T00:28:09;13.10;99.90
14099;DHT22;7126;48.458;7.930;2023-04-24T00:30:34;13.10;99.90
14099;DHT22;7126;48.458;7.930;2023-04-24T00:33:00;13.10;99.90
14099;DHT22;7126;48.458;7.930;2023-04-24T00:35:25;13.00;99.90
14099;DHT22;7126;48.458;7.930;2023-04-24T00:37:51;12.90;99.90
14099;DHT22;7126;48.458;7.930;2023-04-24T00:40:17;12.80;99.90
14099;DHT22;7126;48.458;7.930;2023-04-24T00:42:43;12.80;99.90
14099;DHT22;7126;48.458;7.930;2023-04-24T00:45:10;12.90;99.90
14099;DHT22;7126;48.458;7.930;2023-04-24T00:47:36;12.90;99.90
14099;DHT22;7126;48.458;7.930;2023-04-24T00:50:03;13.00;99.90
14099;DHT22;7126;48.458;7.930;2023-04-24T00:52:29;12.90;99.90
14099;DHT22;7126;48.458;7.930;2023-04-24T00:54:57;12.90;99.90
14099;DHT22;7126;48.458;7.930;2023-04-24T00:57:22;12.80;99.90
14099;DHT22;7126;48.458;7.930;2023-04-24T00:59:49;12.80;99.90
14099;DHT22;7126;48.458;7.930;2023-04-24T01:02:15;12.80;99.90
14099;DHT22;7126;48.458;7.930;2023-04-24T01:04:41;12.80;99.90
14099;DHT22;7126;48.458;7.930;2023-04-24T01:07:07;12.80;99.90
14099;DHT22;7126;48.458;7.930;2023-04-24T01:09:42;12.80;99.90
14099;DHT22;7126;48.458;7.930;2023-04-24T01:12:09;12.70;99.90
14099;DHT22;7126;48.458;7.930;2023-04-24T01:14:36;12.80;99.90
14099;DHT22;7126;48.458;7.930;2023-04-24T01:17:01;12.80;99.90
14099;DHT22;7126;48.458;7.930;2023-04-24T01:19:27;12.80;99.90
14099;DHT22;7126;48.458;7.930;2023-04-24T01:21:53;12.80;99.90
14099;DHT22;7126;48.458;7.930;2023-04-24T01:24:19;12.80;99.90
14099;DHT22;7126;48.458;7.930;2023-04-24T01:26:46;12.80;99.90
14099;DHT22;7126;48.458;7.930;2023-04-24T01:29:12;12.80;99.90
14099;DHT22;7126;48.458;7.930;2023-04-24T01:31:39;12.80;99.90
14099;DHT22;7126;48.458;7.930;2023-04-24T01:34:05;12.80;99.90
14099;DHT22;7126;48.458;7.930;2023-04-24T01:36:32;12.80;99.90
14099;DHT22;7126;48.458;7.930;2023-04-24T01:38:58;12.80;99.90
14099;DHT22;7126;48.458;7.930;2023-04-24T01:41:24;12.80;99.90
14099;DHT22;7126;48.458;7.930;2023-04-24T01:43:50;12.80;99.90
14099;DHT22;7126;48.458;7.930;2023-04-24T01:46:16;12.80;99.90
14099;DHT22;7126;48.458;7.930;2023-04-24T01:48:42;12.70;99.90
14099;DHT22;7126;48.458;7.930;2023-04-24T01:51:08;12.70;99.90
14099;DHT22;7126;48.458;7.930;2023-04-24T01:53:33;12.70;99.90
14099;DHT22;7126;48.458;7.930;2023-04-24T01:55:59;12.70;99.90
14099;DHT22;7126;48.458;7.930;2023-04-24T01:58:25;12.70;99.90
14099;DHT22;7126;48.458;7.930;2023-04-24T02:00:51;12.70;99.90
14099;DHT22;7126;48.458;7.930;2023-04-24T02:03:16;12.80;99.90
14099;DHT22;7126;48.458;7.930;2023-04-24T02:05:44;12.80;99.90
14099;DHT22;7126;48.458;7.930;2023-04-24T02:08:10;12.80;99.90
14099;DHT22;7126;48.458;7.930;2023-04-24T02:10:36;12.80;99.90
14099;DHT22;7126;48.458;7.930;2023-04-24T02:13:01;12.80;99.90
14099;DHT22;7126;48.458;7.930;2023-04-24T02:15:27;12.70;99.90
14099;DHT22;7126;48.458;7.930;2023-04-24T02:17:53;12.80;99.90
14099;DHT22;7126;48.458;7.930;2023-04-24T02:20:18;12.70;99.90
14099;DHT22;7126;48.458;7.930;2023-04-24T02:22:44;12.70;99.90
14099;DHT22;7126;48.458;7.930;2023-04-24T02:25:10;12.70;99.90
14099;DHT22;7126;48.458;7.930;2023-04-24T02:27:36;12.60;99.90
14099;DHT22;7126;48.458;7.930;2023-04-24T02:30:01;12.60;99.90
14099;DHT22;7126;48.458;7.930;2023-04-24T02:32:28;12.60;99.90
14099;DHT22;7126;48.458;7.930;2023-04-24T02:34:54;12.50;99.90
14099;DHT22;7126;48.458;7.930;2023-04-24T02:37:19;12.40;99.90
14099;DHT22;7126;48.458;7.930;2023-04-24T02:39:45;12.40;99.90
14099;DHT22;7126;48.458;7.930;2023-04-24T02:42:11;12.50;99.90
14099;DHT22;7126;48.458;7.930;2023-04-24T02:44:36;12.50;99.90
14099;DHT22;7126;48.458;7.930;2023-04-24T02:47:02;12.50;99.90
14099;DHT22;7126;48.458;7.930;2023-04-24T02:49:27;12.50;99.90
14099;DHT22;7126;48.458;7.930;2023-04-24T02:51:53;12.50;99.90
14099;DHT22;7126;48.458;7.930;2023-04-24T02:54:19;12.60;99.90
14099;DHT22;7126;48.458;7.930;2023-04-24T02:56:44;12.50;99.90
14099;DHT22;7126;48.458;7.930;2023-04-24T02:59:10;12.50;99.90
14099;DHT22;7126;48.458;7.930;2023-04-24T03:01:35;12.50;99.90
14099;DHT22;7126;48.458;7.930;2023-04-24T03:04:01;12.50;99.90
14099;DHT22;7126;48.458;7.930;2023-04-24T03:06:27;12.50;99.90
14099;DHT22;7126;48.458;7.930;2023-04-24T03:08:53;12.40;99.90
14099;DHT22;7126;48.458;7.930;2023-04-24T03:11:19;12.40;99.90
14099;DHT22;7126;48.458;7.930;2023-04-24T03:13:45;12.30;99.90
14099;DHT22;7126;48.458;7.930;2023-04-24T03:16:11;12.30;99.90
14099;DHT22;7126;48.458;7.930;2023-04-24T03:18:36;12.30;99.90
14099;DHT22;7126;48.458;7.930;2023-04-24T03:21:02;12.20;99.90
14099;DHT22;7126;48.458;7.930;2023-04-24T03:23:28;12.20;99.90
14099;DHT22;7126;48.458;7.930;2023-04-24T03:25:54;12.10;99.90
14099;DHT22;7126;48.458;7.930;2023-04-24T03:28:20;12.00;99.90
14099;DHT22;7126;48.458;7.930;2023-04-24T03:30:46;12.00;99.90
14099;DHT22;7126;48.458;7.930;2023-04-24T03:33:11;11.90;99.90
14099;DHT22;7126;48.458;7.930;2023-04-24T03:35:37;11.90;99.90
14099;DHT22;7126;48.458;7.930;2023-04-24T03:38:02;11.90;99.90
14099;DHT22;7126;48.458;7.930;2023-04-24T03:40:30;12.00;99.90
14099;DHT22;7126;48.458;7.930;2023-04-24T03:42:55;12.00;99.90
14099;DHT22;7126;48.458;7.930;2023-04-24T03:45:21;12.00;99.90
14099;DHT22;7126;48.458;7.930;2023-04-24T03:47:47;11.90;99.90
14099;DHT22;7126;48.458;7.930;2023-04-24T03:50:12;11.90;99.90
14099;DHT22;7126;48.458;7.930;2023-04-24T03:52:38;11.90;99.90
14099;DHT22;7126;48.458;7.930;2023-04-24T03:55:04;12.00;99.90
14099;DHT22;7126;48.458;7.930;2023-04-24T03:57:29;12.00;99.90
14099;DHT22;7126;48.458;7.930;2023-04-24T03:59:55;12.00;99.90
14099;DHT22;7126;48.458;7.930;2023-04-24T04:02:21;12.00;99.90
14099;DHT22;7126;48.458;7.930;2023-04-24T04:04:46;12.00;99.90
14099;DHT22;7126;48.458;7.930;2023-04-24T04:07:12;12.00;99.90
14099;DHT22;7126;48.458;7.930;2023-04-24T04:09:38;12.00;99.90
14099;DHT22;7126;48.458;7.930;2023-04-24T04:12:03;12.00;99.90
14099;DHT22;7126;48.458;7.930;2023-04-24T04:14:29;11.90;99.90
14099;DHT22;7126;48.458;7.930;2023-04-24T04:16:55;11.90;99.90
14099;DHT22;7126;48.458;7.930;2023-04-24T04:19:20;11.90;99.90
14099;DHT22;7126;48.458;7.930;2023-04-24T04:21:46;11.90;99.90
14099;DHT22;7126;48.458;7.930;2023-04-24T04:24:16;11.80;99.90
14099;DHT22;7126;48.458;7.930;2023-04-24T04:26:41;11.70;99.90
14099;DHT22;7126;48.458;7.930;2023-04-24T04:29:11;11.70;99.90
14099;DHT22;7126;48.458;7.930;2023-04-24T04:31:37;11.60;99.90
14099;DHT22;7126;48.458;7.930;2023-04-24T04:34:02;11.60;99.90
14099;DHT22;7126;48.458;7.930;2023-04-24T04:36:28;11.60;99.90
14099;DHT22;7126;48.458;7.930;2023-04-24T04:38:54;11.60;99.90
14099;DHT22;7126;48.458;7.930;2023-04-24T04:41:20;11.50;99.90
14099;DHT22;7126;48.458;7.930;2023-04-24T04:43:45;11.50;99.90
14099;DHT22;7126;48.458;7.930;2023-04-24T04:46:11;11.50;99.90
14099;DHT22;7126;48.458;7.930;2023-04-24T04:48:37;11.50;99.90
14099;DHT22;7126;48.458;7.930;2023-04-24T04:51:03;11.40;99.90
14099;DHT22;7126;48.458;7.930;2023-04-24T04:53:29;11.50;99.90
14099;DHT22;7126;48.458;7.930;2023-04-24T04:55:54;11.60;99.90
14099;DHT22;7126;48.458;7.930;2023-04-24T04:58:20;11.60;99.90
14099;DHT22;7126;48.458;7.930;2023-04-24T05:00:45;11.60;99.90
14099;DHT22;7126;48.458;7.930;2023-04-24T05:03:11;11.70;99.90
14099;DHT22;7126;48.458;7.930;2023-04-24T05:05:37;11.70;99.90
14099;DHT22;7126;48.458;7.930;2023-04-24T05:08:06;11.70;99.90
14099;DHT22;7126;48.458;7.930;2023-04-24T05:10:32;11.80;99.90
14099;DHT22;7126;48.458;7.930;2023-04-24T05:12:58;11.90;99.90
14099;DHT22;7126;48.458;7.930;2023-04-24T05:15:23;11.90;99.90
14099;DHT22;7126;48.458;7.930;2023-04-24T05:17:49;11.90;99.90
14099;DHT22;7126;48.458;7.930;2023-04-24T05:20:15;11.80;99.90
14099;DHT22;7126;48.458;7.930;2023-04-24T05:22:40;11.80;99.90
14099;DHT22;7126;48.458;7.930;2023-04-24T05:25:06;11.80;99.90
14099;DHT22;7126;48.458;7.930;2023-04-24T05:27:32;11.60;99.90
14099;DHT22;7126;48.458;7.930;2023-04-24T05:29:57;11.60;99.90
14099;DHT22;7126;48.458;7.930;2023-04-24T05:32:23;11.60;99.90
14099;DHT22;7126;48.458;7.930;2023-04-24T05:34:48;11.60;99.90
14099;DHT22;7126;48.458;7.930;2023-04-24T05:37:14;11.60;99.90
14099;DHT22;7126;48.458;7.930;2023-04-24T05:39:40;11.60;99.90
14099;DHT22;7126;48.458;7.930;2023-04-24T05:42:06;11.70;99.90
14099;DHT22;7126;48.458;7.930;2023-04-24T05:44:32;11.70;99.90
14099;DHT22;7126;48.458;7.930;2023-04-24T05:46:58;11.70;99.90
14099;DHT22;7126;48.458;7.930;2023-04-24T05:49:23;11.60;99.90
14099;DHT22;7126;48.458;7.930;2023-04-24T05:51:49;11.60;99.90
14099;DHT22;7126;48.458;7.930;2023-04-24T05:54:14;11.60;99.90
14099;DHT22;7126;48.458;7.930;2023-04-24T05:56:40;11.40;99.90
14099;DHT22;7126;48.458;7.930;2023-04-24T05:59:06;11.40;99.90
14099;DHT22;7126;48.458;7.930;2023-04-24T06:01:32;11.40;99.90
14099;DHT22;7126;48.458;7.930;2023-04-24T06:03:58;11.50;99.90
14099;DHT22;7126;48.458;7.930;2023-04-24T06:06:24;11.40;99.90
14099;DHT22;7126;48.458;7.930;2023-04-24T06:08:50;11.40;99.90
14099;DHT22;7126;48.458;7.930;2023-04-24T06:11:15;11.50;99.90
14099;DHT22;7126;48.458;7.930;2023-04-24T06:13:41;11.60;99.90
14099;DHT22;7126;48.458;7.930;2023-04-24T06:16:07;11.70;99.90
14099;DHT22;7126;48.458;7.930;2023-04-24T06:18:32;11.60;99.90
14099;DHT22;7126;48.458;7.930;2023-04-24T06:20:58;11.50;99.90
14099;DHT22;7126;48.458;7.930;2023-04-24T06:23:23;11.50;99.90
14099;DHT22;7126;48.458;7.930;2023-04-24T06:25:49;11.40;99.90
14099;DHT22;7126;48.458;7.930;2023-04-24T06:28:15;11.40;99.90
14099;DHT22;7126;48.458;7.930;2023-04-24T06:30:40;11.30;99.90
14099;DHT22;7126;48.458;7.930;2023-04-24T06:33:06;11.30;99.90
14099;DHT22;7126;48.458;7.930;2023-04-24T06:35:32;11.30;99.90
14099;DHT22;7126;48.458;7.930;2023-04-24T06:37:57;11.30;99.90
14099;DHT22;7126;48.458;7.930;2023-04-24T06:40:23;11.40;99.90
14099;DHT22;7126;48.458;7.930;2023-04-24T06:42:48;11.50;99.90
14099;DHT22;7126;48.458;7.930;2023-04-24T06:45:14;11.50;99.90
14099;DHT22;7126;48.458;7.930;2023-04-24T06:47:39;11.50;99.90
14099;DHT22;7126;48.458;7.930;2023-04-24T06:50:07;11.60;99.90
14099;DHT22;7126;48.458;7.930;2023-04-24T06:52:32;11.60;99.90
14099;DHT22;7126;48.458;7.930;2023-04-24T06:55:02;11.70;99.90
14099;DHT22;7126;48.458;7.930;2023-04-24T06:57:28;11.70;99.90
14099;DHT22;7126;48.458;7.930;2023-04-24T06:59:54;11.80;99.90
14099;DHT22;7126;48.458;7.930;2023-04-24T07:02:19;11.90;99.90
14099;DHT22;7126;48.458;7.930;2023-04-24T07:04:45;12.00;99.90
14099;DHT22;7126;48.458;7.930;2023-04-24T07:07:12;12.20;99.90
14099;DHT22;7126;48.458;7.930;2023-04-24T07:09:39;12.30;99.90
14099;DHT22;7126;48.458;7.930;2023-04-24T07:12:07;12.50;99.90
14099;DHT22;7126;48.458;7.930;2023-04-24T07:14:33;12.40;99.90
14099;DHT22;7126;48.458;7.930;2023-04-24T07:16:59;12.50;99.90
14099;DHT22;7126;48.458;7.930;2023-04-24T07:19:24;12.50;99.90
14099;DHT22;7126;48.458;7.930;2023-04-24T07:21:50;12.50;99.90
14099;DHT22;7126;48.458;7.930;2023-04-24T07:24:15;12.50;99.90
14099;DHT22;7126;48.458;7.930;2023-04-24T07:26:41;12.40;99.90
14099;DHT22;7126;48.458;7.930;2023-04-24T07:29:07;12.30;99.90
14099;DHT22;7126;48.458;7.930;2023-04-24T07:31:33;12.10;99.90
14099;DHT22;7126;48.458;7.930;2023-04-24T07:33:58;12.10;99.90
14099;DHT22;7126;48.458;7.930;2023-04-24T07:36:24;12.00;99.90
14099;DHT22;7126;48.458;7.930;2023-04-24T07:38:51;12.00;99.90
14099;DHT22;7126;48.458;7.930;2023-04-24T07:41:16;12.00;99.90
14099;DHT22;7126;48.458;7.930;2023-04-24T07:43:42;12.00;99.90
14099;DHT22;7126;48.458;7.930;2023-04-24T07:46:10;12.00;99.90
14099;DHT22;7126;48.458;7.930;2023-04-24T07:48:36;12.00;99.90
14099;DHT22;7126;48.458;7.930;2023-04-24T07:51:02;12.10;99.90
14099;DHT22;7126;48.458;7.930;2023-04-24T07:53:27;12.20;99.90
14099;DHT22;7126;48.458;7.930;2023-04-24T07:55:55;12.30;99.90
14099;DHT22;7126;48.458;7.930;2023-04-24T07:58:21;12.50;99.90
14099;DHT22;7126;48.458;7.930;2023-04-24T08:00:46;12.50;99.90
14099;DHT22;7126;48.458;7.930;2023-04-24T08:03:12;12.40;99.90
14099;DHT22;7126;48.458;7.930;2023-04-24T08:05:38;12.30;99.90
14099;DHT22;7126;48.458;7.930;2023-04-24T08:08:04;12.30;99.90
14099;DHT22;7126;48.458;7.930;2023-04-24T08:10:30;12.30;99.90
14099;DHT22;7126;48.458;7.930;2023-04-24T08:12:55;12.30;99.90
14099;DHT22;7126;48.458;7.930;2023-04-24T08:15:21;12.40;99.90
14099;DHT22;7126;48.458;7.930;2023-04-24T08:17:47;12.40;99.90
14099;DHT22;7126;48.458;7.930;2023-04-24T08:20:12;12.40;99.90
14099;DHT22;7126;48.458;7.930;2023-04-24T08:22:42;12.40;99.90
14099;DHT22;7126;48.458;7.930;2023-04-24T08:25:09;12.40;99.90
14099;DHT22;7126;48.458;7.930;2023-04-24T08:27:35;12.40;99.90
14099;DHT22;7126;48.458;7.930;2023-04-24T08:30:02;12.50;99.90
14099;DHT22;7126;48.458;7.930;2023-04-24T08:32:28;12.60;99.90
14099;DHT22;7126;48.458;7.930;2023-04-24T08:34:55;12.80;99.90
14099;DHT22;7126;48.458;7.930;2023-04-24T08:37:22;13.00;99.90
14099;DHT22;7126;48.458;7.930;2023-04-24T08:39:47;13.20;99.90
14099;DHT22;7126;48.458;7.930;2023-04-24T08:42:13;13.20;99.90
14099;DHT22;7126;48.458;7.930;2023-04-24T08:44:40;13.10;99.90
14099;DHT22;7126;48.458;7.930;2023-04-24T08:47:07;13.00;99.90
14099;DHT22;7126;48.458;7.930;2023-04-24T08:49:33;12.90;99.90
14099;DHT22;7126;48.458;7.930;2023-04-24T08:52:01;12.70;99.90
14099;DHT22;7126;48.458;7.930;2023-04-24T08:54:28;12.60;99.90
14099;DHT22;7126;48.458;7.930;2023-04-24T08:56:58;12.50;99.90
14099;DHT22;7126;48.458;7.930;2023-04-24T08:59:26;12.40;99.90
14099;DHT22;7126;48.458;7.930;2023-04-24T09:01:52;12.20;99.90
14099;DHT22;7126;48.458;7.930;2023-04-24T09:04:20;12.10;99.90
14099;DHT22;7126;48.458;7.930;2023-04-24T09:06:48;12.20;99.90
14099;DHT22;7126;48.458;7.930;2023-04-24T09:09:16;12.10;99.90
14099;DHT22;7126;48.458;7.930;2023-04-24T09:11:43;12.20;99.90
14099;DHT22;7126;48.458;7.930;2023-04-24T09:14:09;12.20;99.90
14099;DHT22;7126;48.458;7.930;2023-04-24T09:16:36;12.10;99.90
14099;DHT22;7126;48.458;7.930;2023-04-24T09:19:01;12.10;99.90
14099;DHT22;7126;48.458;7.930;2023-04-24T09:21:32;12.20;99.90
14099;DHT22;7126;48.458;7.930;2023-04-24T09:24:00;12.20;99.90
14099;DHT22;7126;48.458;7.930;2023-04-24T09:26:30;12.10;99.90
14099;DHT22;7126;48.458;7.930;2023-04-24T09:28:57;12.10;99.90
14099;DHT22;7126;48.458;7.930;2023-04-24T09:31:23;12.10;99.90
14099;DHT22;7126;48.458;7.930;2023-04-24T09:33:57;12.10;99.90
14099;DHT22;7126;48.458;7.930;2023-04-24T09:36:29;12.10;99.90
14099;DHT22;7126;48.458;7.930;2023-04-24T09:39:01;12.10;99.90
14099;DHT22;7126;48.458;7.930;2023-04-24T09:41:27;12.10;99.90
14099;DHT22;7126;48.458;7.930;2023-04-24T09:43:54;12.10;99.90
14099;DHT22;7126;48.458;7.930;2023-04-24T09:46:21;12.10;99.90
14099;DHT22;7126;48.458;7.930;2023-04-24T09:48:47;12.10;99.90
14099;DHT22;7126;48.458;7.930;2023-04-24T09:51:13;12.10;99.90
14099;DHT22;7126;48.458;7.930;2023-04-24T09:53:45;12.10;99.90
14099;DHT22;7126;48.458;7.930;2023-04-24T09:56:11;12.10;99.90
14099;DHT22;7126;48.458;7.930;2023-04-24T09:58:40;12.10;99.90
14099;DHT22;7126;48.458;7.930;2023-04-24T10:01:06;12.00;99.90
14099;DHT22;7126;48.458;7.930;2023-04-24T10:03:35;12.00;99.90
14099;DHT22;7126;48.458;7.930;2023-04-24T10:06:02;12.00;99.90
14099;DHT22;7126;48.458;7.930;2023-04-24T10:08:34;12.00;99.90
14099;DHT22;7126;48.458;7.930;2023-04-24T10:11:00;12.10;99.90
14099;DHT22;7126;48.458;7.930;2023-04-24T10:13:27;12.20;99.90
14099;DHT22;7126;48.458;7.930;2023-04-24T10:15:53;12.30;99.90
14099;DHT22;7126;48.458;7.930;2023-04-24T10:18:20;12.30;99.90
14099;DHT22;7126;48.458;7.930;2023-04-24T10:20:47;12.30;99.90
14099;DHT22;7126;48.458;7.930;2023-04-24T10:23:12;12.30;99.90
14099;DHT22;7126;48.458;7.930;2023-04-24T10:25:38;12.30;99.90
14099;DHT22;7126;48.458;7.930;2023-04-24T10:28:05;12.40;99.90
14099;DHT22;7126;48.458;7.930;2023-04-24T10:30:33;12.40;99.90
14099;DHT22;7126;48.458;7.930;2023-04-24T10:33:03;12.30;99.90
14099;DHT22;7126;48.458;7.930;2023-04-24T10:35:37;12.30;99.90
14099;DHT22;7126;48.458;7.930;2023-04-24T10:38:07;12.30;99.90
14099;DHT22;7126;48.458;7.930;2023-04-24T10:40:35;12.30;99.90
14099;DHT22;7126;48.458;7.930;2023-04-24T10:43:08;12.40;99.90
14099;DHT22;7126;48.458;7.930;2023-04-24T10:45:37;12.40;99.90
14099;DHT22;7126;48.458;7.930;2023-04-24T10:48:05;12.40;99.90
14099;DHT22;7126;48.458;7.930;2023-04-24T10:50:44;12.30;99.90
14099;DHT22;7126;48.458;7.930;2023-04-24T10:53:21;12.30;99.90
14099;DHT22;7126;48.458;7.930;2023-04-24T10:56:18;12.30;99.90
14099;DHT22;7126;48.458;7.930;2023-04-24T10:58:51;12.20;99.90
14099;DHT22;7126;48.458;7.930;2023-04-24T11:01:29;12.10;99.90
14099;DHT22;7126;48.458;7.930;2023-04-24T11:04:03;12.10;99.90
14099;DHT22;7126;48.458;7.930;2023-04-24T11:06:33;12.00;99.90
14099;DHT22;7126;48.458;7.930;2023-04-24T11:09:09;11.90;99.90
14099;DHT22;7126;48.458;7.930;2023-04-24T11:11:43;11.90;99.90
14099;DHT22;7126;48.458;7.930;2023-04-24T11:14:09;11.90;99.90
14099;DHT22;7126;48.458;7.930;2023-04-24T11:19:18;11.90;99.90
14099;DHT22;7126;48.458;7.930;2023-04-24T11:22:00;11.90;99.90
14099;DHT22;7126;48.458;7.930;2023-04-24T11:29:43;12.00;99.90
14099;DHT22;7126;48.458;7.930;2023-04-24T11:35:00;12.20;99.90
14099;DHT22;7126;48.458;7.930;2023-04-24T11:37:38;12.30;99.90
14099;DHT22;7126;48.458;7.930;2023-04-24T11:40:06;12.40;99.90
14099;DHT22;7126;48.458;7.930;2023-04-24T11:42:36;12.50;99.90
14099;DHT22;7126;48.458;7.930;2023-04-24T11:45:02;12.60;99.90
14099;DHT22;7126;48.458;7.930;2023-04-24T11:47:32;12.70;99.90
14099;DHT22;7126;48.458;7.930;2023-04-24T11:49:59;12.70;99.90
14099;DHT22;7126;48.458;7.930;2023-04-24T11:52:26;12.60;99.90
14099;DHT22;7126;48.458;7.930;2023-04-24T11:54:52;12.50;99.90
14099;DHT22;7126;48.458;7.930;2023-04-24T11:57:21;12.50;99.90
14099;DHT22;7126;48.458;7.930;2023-04-24T11:59:48;12.40;99.90
14099;DHT22;7126;48.458;7.930;2023-04-24T12:02:23;12.40;99.90
14099;DHT22;7126;48.458;7.930;2023-04-24T12:04:49;12.40;99.90
14099;DHT22;7126;48.458;7.930;2023-04-24T12:07:15;12.40;99.90
14099;DHT22;7126;48.458;7.930;2023-04-24T12:09:44;12.40;99.90
14099;DHT22;7126;48.458;7.930;2023-04-24T12:12:11;12.40;99.90
14099;DHT22;7126;48.458;7.930;2023-04-24T12:14:48;12.30;99.90
14099;DHT22;7126;48.458;7.930;2023-04-24T12:17:15;12.40;99.90
14099;DHT22;7126;48.458;7.930;2023-04-24T12:19:48;12.40;99.90
14099;DHT22;7126;48.458;7.930;2023-04-24T12:22:14;12.50;99.90
14099;DHT22;7126;48.458;7.930;2023-04-24T12:25:02;12.60;99.90
14099;DHT22;7126;48.458;7.930;2023-04-24T12:27:32;12.80;99.90
14099;DHT22;7126;48.458;7.930;2023-04-24T12:30:03;12.80;99.90
14099;DHT22;7126;48.458;7.930;2023-04-24T12:32:29;12.80;99.90
14099;DHT22;7126;48.458;7.930;2023-04-24T12:34:55;12.90;99.90
14099;DHT22;7126;48.458;7.930;2023-04-24T12:37:23;12.90;99.90
14099;DHT22;7126;48.458;7.930;2023-04-24T12:39:59;12.80;99.90
14099;DHT22;7126;48.458;7.930;2023-04-24T12:42:27;12.80;99.90
14099;DHT22;7126;48.458;7.930;2023-04-24T12:44:57;12.90;99.90
14099;DHT22;7126;48.458;7.930;2023-04-24T12:47:24;13.00;99.90
14099;DHT22;7126;48.458;7.930;2023-04-24T12:49:50;13.00;99.90
14099;DHT22;7126;48.458;7.930;2023-04-24T12:52:18;13.00;99.90
14099;DHT22;7126;48.458;7.930;2023-04-24T12:54:45;13.00;99.90
14099;DHT22;7126;48.458;7.930;2023-04-24T12:57:11;13.00;99.90
14099;DHT22;7126;48.458;7.930;2023-04-24T12:59:36;13.00;99.90
14099;DHT22;7126;48.458;7.930;2023-04-24T13:02:02;13.00;99.90
14099;DHT22;7126;48.458;7.930;2023-04-24T13:04:28;12.90;99.90
14099;DHT22;7126;48.458;7.930;2023-04-24T13:06:53;13.00;99.90
14099;DHT22;7126;48.458;7.930;2023-04-24T13:09:19;13.00;99.90
14099;DHT22;7126;48.458;7.930;2023-04-24T13:11:44;13.00;99.90
14099;DHT22;7126;48.458;7.930;2023-04-24T13:14:10;13.00;99.90
14099;DHT22;7126;48.458;7.930;2023-04-24T13:16:35;12.90;99.90
14099;DHT22;7126;48.458;7.930;2023-04-24T13:19:01;12.90;99.90
14099;DHT22;7126;48.458;7.930;2023-04-24T13:21:26;12.90;99.90
14099;DHT22;7126;48.458;7.930;2023-04-24T13:23:52;12.90;99.90
14099;DHT22;7126;48.458;7.930;2023-04-24T13:26:18;13.00;99.90
14099;DHT22;7126;48.458;7.930;2023-04-24T13:28:44;13.00;99.90
14099;DHT22;7126;48.458;7.930;2023-04-24T13:31:09;13.00;99.90
14099;DHT22;7126;48.458;7.930;2023-04-24T13:33:35;13.00;99.90
14099;DHT22;7126;48.458;7.930;2023-04-24T13:36:01;13.10;99.90
14099;DHT22;7126;48.458;7.930;2023-04-24T13:38:26;13.10;99.90
14099;DHT22;7126;48.458;7.930;2023-04-24T13:40:52;13.20;99.90
14099;DHT22;7126;48.458;7.930;2023-04-24T13:43:17;13.20;99.90
14099;DHT22;7126;48.458;7.930;2023-04-24T13:45:43;13.10;99.90
14099;DHT22;7126;48.458;7.930;2023-04-24T13:48:08;13.20;99.90
14099;DHT22;7126;48.458;7.930;2023-04-24T13:50:34;13.20;99.90
14099;DHT22;7126;48.458;7.930;2023-04-24T13:53:00;13.20;99.90
14099;DHT22;7126;48.458;7.930;2023-04-24T13:55:26;13.20;99.90
14099;DHT22;7126;48.458;7.930;2023-04-24T13:57:52;13.30;99.90
14099;DHT22;7126;48.458;7.930;2023-04-24T14:00:20;13.40;99.90
14099;DHT22;7126;48.458;7.930;2023-04-24T14:02:46;13.40;99.90
14099;DHT22;7126;48.458;7.930;2023-04-24T14:05:13;13.40;99.90
14099;DHT22;7126;48.458;7.930;2023-04-24T14:07:40;13.40;99.90
14099;DHT22;7126;48.458;7.930;2023-04-24T14:10:07;13.40;99.90
14099;DHT22;7126;48.458;7.930;2023-04-24T14:12:32;13.30;99.90
14099;DHT22;7126;48.458;7.930;2023-04-24T14:14:58;13.30;99.90
14099;DHT22;7126;48.458;7.930;2023-04-24T14:17:24;13.40;99.90
14099;DHT22;7126;48.458;7.930;2023-04-24T14:19:50;13.50;99.90
14099;DHT22;7126;48.458;7.930;2023-04-24T14:22:17;13.60;99.90
14099;DHT22;7126;48.458;7.930;2023-04-24T14:24:43;13.60;99.90
14099;DHT22;7126;48.458;7.930;2023-04-24T14:27:08;13.70;99.90
14099;DHT22;7126;48.458;7.930;2023-04-24T14:29:34;13.80;99.90
14099;DHT22;7126;48.458;7.930;2023-04-24T14:31:59;14.00;99.90
14099;DHT22;7126;48.458;7.930;2023-04-24T14:34:25;14.10;99.90
14099;DHT22;7126;48.458;7.930;2023-04-24T14:36:51;14.10;99.90
14099;DHT22;7126;48.458;7.930;2023-04-24T14:39:17;14.30;99.90
14099;DHT22;7126;48.458;7.930;2023-04-24T14:41:43;14.30;99.90
14099;DHT22;7126;48.458;7.930;2023-04-24T14:44:08;14.30;99.90
14099;DHT22;7126;48.458;7.930;2023-04-24T14:46:34;14.40;99.90
14099;DHT22;7126;48.458;7.930;2023-04-24T14:49:00;14.50;99.90
14099;DHT22;7126;48.458;7.930;2023-04-24T14:51:25;14.50;99.90
14099;DHT22;7126;48.458;7.930;2023-04-24T14:53:52;14.60;99.90
14099;DHT22;7126;48.458;7.930;2023-04-24T14:56:17;14.60;99.90
14099;DHT22;7126;48.458;7.930;2023-04-24T14:58:43;14.60;99.90
14099;DHT22;7126;48.458;7.930;2023-04-24T15:01:09;14.60;99.90
14099;DHT22;7126;48.458;7.930;2023-04-24T15:03:34;14.70;99.90
14099;DHT22;7126;48.458;7.930;2023-04-24T15:06:00;14.60;99.90
14099;DHT22;7126;48.458;7.930;2023-04-24T15:08:26;14.60;99.90
14099;DHT22;7126;48.458;7.930;2023-04-24T15:10:52;14.50;99.90
14099;DHT22;7126;48.458;7.930;2023-04-24T15:13:17;14.60;99.90
14099;DHT22;7126;48.458;7.930;2023-04-24T15:15:43;14.50;99.90
14099;DHT22;7126;48.458;7.930;2023-04-24T15:18:11;14.50;99.90
14099;DHT22;7126;48.458;7.930;2023-04-24T15:20:37;14.60;99.90
14099;DHT22;7126;48.458;7.930;2023-04-24T15:23:08;14.60;99.90
14099;DHT22;7126;48.458;7.930;2023-04-24T15:25:34;14.80;99.90
14099;DHT22;7126;48.458;7.930;2023-04-24T15:28:00;15.00;99.90
14099;DHT22;7126;48.458;7.930;2023-04-24T15:30:26;15.20;99.90
14099;DHT22;7126;48.458;7.930;2023-04-24T15:32:52;15.30;99.90
14099;DHT22;7126;48.458;7.930;2023-04-24T15:35:17;15.20;99.90
14099;DHT22;7126;48.458;7.930;2023-04-24T15:37:43;15.10;99.90
14099;DHT22;7126;48.458;7.930;2023-04-24T15:40:09;15.00;99.90
14099;DHT22;7126;48.458;7.930;2023-04-24T15:42:36;15.00;99.90
14099;DHT22;7126;48.458;7.930;2023-04-24T15:45:02;14.90;99.90
14099;DHT22;7126;48.458;7.930;2023-04-24T15:47:28;14.80;99.90
14099;DHT22;7126;48.458;7.930;2023-04-24T15:49:54;14.80;99.90
14099;DHT22;7126;48.458;7.930;2023-04-24T15:52:20;14.70;99.90